Time;durP1;ratioP1;P1;durP2;ratioP2;P2;SDS_P1;SDS_P2;PMS_P1;PMS_P2;Temp;Humidity;BMP_temperature;BMP_pressure;BME280_temperature;BME280_humidity;BME280_pressure;Samples;Min_cycle;Max_cycle;Signal;HPM_P1;HPM_P2
2022/12/07 00:01:05;;;;;;;15.15;10.75;;;;;;;;;;5025636;28;20100;-42
2022/12/07 00:03:30;;;;;;;16.75;11.60;;;;;;;;;;5027519;28;20490;-41
2022/12/07 00:06:00;;;;;;;19.50;12.30;;;;;;;;;;5026302;28;20052;-43
2022/12/07 00:08:25;;;;;;;16.83;11.50;;;;;;;;;;5026692;28;20028;-42
2022/12/07 00:10:50;;;;;;;17.27;11.57;;;;;;;;;;5026093;28;20426;-43
2022/12/07 00:13:16;;;;;;;19.52;11.73;;;;;;;;;;5027969;28;20053;-40
2022/12/07 00:15:41;;;;;;;19.52;12.00;;;;;;;;;;5026524;28;20497;-40
2022/12/07 00:18:07;;;;;;;21.33;12.35;;;;;;;;;;5025120;28;20025;-41
2022/12/07 00:20:32;;;;;;;18.17;12.38;;;;;;;;;;5023255;28;20486;-41
2022/12/07 00:22:58;;;;;;;19.70;12.93;;;;;;;;;;5027601;28;20033;-41
2022/12/07 00:25:23;;;;;;;17.58;10.73;;;;;;;;;;5026655;28;20068;-41
2022/12/07 00:27:49;;;;;;;19.10;12.07;;;;;;;;;;5027685;28;20021;-42
2022/12/07 00:30:14;;;;;;;22.60;12.25;;;;;;;;;;5022450;28;20052;-41
2022/12/07 00:32:40;;;;;;;15.63;11.30;;;;;;;;;;5025382;28;20025;-41
2022/12/07 00:35:05;;;;;;;17.48;12.40;;;;;;;;;;5022825;28;20086;-43
2022/12/07 00:37:31;;;;;;;23.05;11.05;;;;;;;;;;5026734;28;20386;-41
2022/12/07 00:39:56;;;;;;;18.88;11.48;;;;;;;;;;5025276;28;20035;-43
2022/12/07 00:42:21;;;;;;;18.52;13.35;;;;;;;;;;5025450;28;20037;-44
2022/12/07 00:44:47;;;;;;;16.50;12.23;;;;;;;;;;5023942;28;20033;-41
2022/12/07 00:47:12;;;;;;;24.38;12.43;;;;;;;;;;5025869;28;20044;-40
2022/12/07 00:49:38;;;;;;;18.55;13.07;;;;;;;;;;5024296;28;20052;-40
2022/12/07 00:52:03;;;;;;;17.35;11.10;;;;;;;;;;5025462;28;20061;-42
2022/12/07 00:54:29;;;;;;;17.17;12.15;;;;;;;;;;5025978;28;20030;-40
2022/12/07 00:56:54;;;;;;;17.73;13.13;;;;;;;;;;5026226;28;20041;-41
2022/12/07 00:59:19;;;;;;;23.52;13.07;;;;;;;;;;5025835;28;20398;-41
2022/12/07 01:01:45;;;;;;;18.77;12.63;;;;;;;;;;5025218;28;20125;-43
2022/12/07 01:04:10;;;;;;;22.35;13.45;;;;;;;;;;5024956;28;20029;-44
2022/12/07 01:06:35;;;;;;;20.67;12.48;;;;;;;;;;5013269;28;20128;-41
2022/12/07 01:09:01;;;;;;;18.40;13.02;;;;;;;;;;5006741;28;20108;-43
2022/12/07 01:11:29;;;;;;;18.45;12.38;;;;;;;;;;5012997;28;20493;-40
2022/12/07 01:13:56;;;;;;;20.10;13.20;;;;;;;;;;5015049;28;20407;-42
2022/12/07 01:16:24;;;;;;;18.70;12.93;;;;;;;;;;5021888;28;20468;-42
2022/12/07 01:18:51;;;;;;;21.17;12.88;;;;;;;;;;5018157;28;20060;-42
2022/12/07 01:21:22;;;;;;;21.17;12.45;;;;;;;;;;5024786;28;20045;-41
2022/12/07 01:23:48;;;;;;;19.48;12.70;;;;;;;;;;5023544;28;20030;-41
2022/12/07 01:26:16;;;;;;;24.30;13.55;;;;;;;;;;5026299;28;20066;-43
2022/12/07 01:28:42;;;;;;;19.92;12.77;;;;;;;;;;5025607;28;20378;-41
2022/12/07 01:31:14;;;;;;;20.90;12.80;;;;;;;;;;5024942;28;20048;-41
2022/12/07 01:33:40;;;;;;;;;;;;;;;;;;5027037;28;20033;-40
2022/12/07 01:36:17;;;;;;;16.65;11.52;;;;;;;;;;5023292;28;19928;-41
2022/12/07 01:38:43;;;;;;;19.58;12.35;;;;;;;;;;5027505;28;20033;-41
2022/12/07 01:41:08;;;;;;;20.38;12.82;;;;;;;;;;5029489;28;20073;-40
2022/12/07 01:43:34;;;;;;;20.50;12.80;;;;;;;;;;5026144;28;20076;-46
2022/12/07 01:46:01;;;;;;;18.63;12.00;;;;;;;;;;5032046;28;20494;-42
2022/12/07 01:48:38;;;;;;;20.92;11.85;;;;;;;;;;5026470;28;20049;-41
2022/12/07 01:51:08;;;;;;;16.13;11.90;;;;;;;;;;5025800;28;20041;-42
2022/12/07 01:53:36;;;;;;;16.17;11.20;;;;;;;;;;5027832;28;20576;-42
2022/12/07 01:56:02;;;;;;;19.45;10.45;;;;;;;;;;5029014;28;20042;-43
2022/12/07 01:58:28;;;;;;;16.58;11.48;;;;;;;;;;5029848;28;20805;-42
2022/12/07 02:00:53;;;;;;;15.45;11.45;;;;;;;;;;5028985;28;20463;-41
2022/12/07 02:03:27;;;;;;;14.60;10.63;;;;;;;;;;5030860;28;20030;-41
2022/12/07 02:05:53;;;;;;;16.75;11.13;;;;;;;;;;5022908;28;20397;-41
2022/12/07 02:08:20;;;;;;;14.73;10.60;;;;;;;;;;5028739;28;20398;-40
2022/12/07 02:10:45;;;;;;;16.55;11.13;;;;;;;;;;5027844;28;20065;-41
2022/12/07 02:13:24;;;;;;;14.32;10.95;;;;;;;;;;5029912;28;20068;-42
2022/12/07 02:16:07;;;;;;;16.23;11.70;;;;;;;;;;5027192;28;20045;-40
2022/12/07 02:18:54;;;;;;;17.15;10.82;;;;;;;;;;5029479;28;20044;-42
2022/12/07 02:21:32;;;;;;;16.65;11.00;;;;;;;;;;5023813;28;20199;-41
2022/12/07 02:24:45;;;;;;;17.27;11.48;;;;;;;;;;5028523;28;20087;-41
2022/12/07 02:27:28;;;;;;;17.13;10.88;;;;;;;;;;4962630;28;20050;-41
2022/12/07 02:30:14;;;;;;;17.83;11.07;;;;;;;;;;4966198;28;20117;-41
2022/12/07 02:32:51;;;;;;;14.02;11.45;;;;;;;;;;4944126;29;20082;-44
2022/12/07 02:35:45;;;;;;;16.60;11.68;;;;;;;;;;4949346;28;20577;-43
2022/12/07 02:38:26;;;;;;;19.20;12.18;;;;;;;;;;4928577;29;20035;-41
2022/12/07 02:40:59;;;;;;;17.77;11.18;;;;;;;;;;4925278;29;20048;-44
2022/12/07 02:43:28;;;;;;;15.40;10.65;;;;;;;;;;4928275;29;20134;-42
2022/12/07 02:45:59;;;;;;;14.45;9.88;;;;;;;;;;4924842;28;20051;-41
2022/12/07 02:48:26;;;;;;;14.73;10.63;;;;;;;;;;4927118;29;20626;-42
2022/12/07 02:50:52;;;;;;;15.73;11.05;;;;;;;;;;4925792;29;20054;-43
2022/12/07 02:53:39;;;;;;;13.23;10.55;;;;;;;;;;4931028;29;20068;-42
2022/12/07 02:56:52;;;;;;;16.52;10.35;;;;;;;;;;4929341;29;20062;-41
2022/12/07 02:59:40;;;;;;;17.17;10.50;;;;;;;;;;4837453;29;20046;-41
2022/12/07 03:02:24;;;;;;;15.88;11.35;;;;;;;;;;4840316;29;20515;-48
2022/12/07 03:05:08;;;;;;;15.60;11.63;;;;;;;;;;4872145;29;20044;-41
2022/12/07 03:07:40;;;;;;;19.08;11.95;;;;;;;;;;4909871;29;20052;-42
2022/12/07 03:10:32;;;;;;;15.68;11.05;;;;;;;;;;4909617;29;20257;-46
2022/12/07 03:13:18;;;;;;;16.95;11.23;;;;;;;;;;4912132;29;20036;-44
2022/12/07 03:16:12;;;;;;;15.23;10.43;;;;;;;;;;4941743;29;20416;-41
2022/12/07 03:18:44;;;;;;;15.52;10.05;;;;;;;;;;4945475;29;20110;-43
2022/12/07 03:21:14;;;;;;;14.80;10.63;;;;;;;;;;4948443;28;20066;-40
2022/12/07 03:23:42;;;;;;;17.42;12.43;;;;;;;;;;4946779;29;20082;-42
2022/12/07 03:26:11;;;;;;;14.00;11.07;;;;;;;;;;4948773;29;20058;-41
2022/12/07 03:28:43;;;;;;;17.30;10.93;;;;;;;;;;4948439;28;20067;-46
2022/12/07 03:31:18;;;;;;;19.02;11.75;;;;;;;;;;4943907;28;20053;-40
2022/12/07 03:33:56;;;;;;;18.65;11.82;;;;;;;;;;4996703;28;20080;-44
2022/12/07 03:36:30;;;;;;;14.73;10.82;;;;;;;;;;5020448;28;20053;-42
2022/12/07 03:39:18;;;;;;;16.58;11.13;;;;;;;;;;5026648;28;20079;-42
2022/12/07 03:41:44;;;;;;;14.93;10.80;;;;;;;;;;5027041;28;20041;-41
2022/12/07 03:44:10;;;;;;;17.05;10.65;;;;;;;;;;5029068;28;20084;-44
2022/12/07 03:46:52;;;;;;;15.55;10.35;;;;;;;;;;5024499;28;20497;-40
2022/12/07 03:49:18;;;;;;;15.40;11.00;;;;;;;;;;5023924;28;20025;-40
2022/12/07 03:51:47;;;;;;;15.70;11.02;;;;;;;;;;5026392;28;20553;-40
2022/12/07 03:54:22;;;;;;;16.95;10.68;;;;;;;;;;5028161;28;20064;-40
2022/12/07 03:56:48;;;;;;;14.57;10.48;;;;;;;;;;5011451;28;20049;-41
2022/12/07 03:59:15;;;;;;;16.33;11.95;;;;;;;;;;5006232;28;20538;-41
2022/12/07 04:01:44;;;;;;;20.75;14.73;;;;;;;;;;5019956;28;20049;-42
2022/12/07 04:04:10;;;;;;;17.10;10.52;;;;;;;;;;5028281;28;20033;-41
2022/12/07 04:06:36;;;;;;;17.05;11.15;;;;;;;;;;5014297;28;20049;-41
2022/12/07 04:09:01;;;;;;;18.45;11.50;;;;;;;;;;5006762;28;20052;-41
2022/12/07 04:11:26;;;;;;;15.90;10.60;;;;;;;;;;5006593;28;20145;-43
2022/12/07 04:16:36;;;;;;;19.52;11.75;;;;;;;;;;5010350;28;20484;-41
2022/12/07 04:19:01;;;;;;;20.63;12.30;;;;;;;;;;5013999;28;20053;-41
2022/12/07 04:21:26;;;;;;;14.80;10.73;;;;;;;;;;5008125;28;20049;-42
2022/12/07 04:23:52;;;;;;;19.75;11.15;;;;;;;;;;5014928;28;20042;-42
2022/12/07 04:26:17;;;;;;;18.08;11.20;;;;;;;;;;5015154;28;20053;-44
2022/12/07 04:28:43;;;;;;;14.48;10.20;;;;;;;;;;5015550;28;20096;-40
2022/12/07 04:31:08;;;;;;;15.55;10.02;;;;;;;;;;5015495;28;20041;-41
2022/12/07 04:33:35;;;;;;;17.33;10.45;;;;;;;;;;5023712;28;20034;-40
2022/12/07 04:36:01;;;;;;;16.13;11.30;;;;;;;;;;5024364;28;20163;-45
2022/12/07 04:38:26;;;;;;;14.52;10.10;;;;;;;;;;5023409;28;20498;-42
2022/12/07 04:40:51;;;;;;;18.08;10.60;;;;;;;;;;5027260;28;20046;-41
2022/12/07 04:43:17;;;;;;;16.00;9.88;;;;;;;;;;5026589;28;20029;-42
2022/12/07 04:45:47;;;;;;;16.25;10.57;;;;;;;;;;5026429;28;20045;-40
2022/12/07 04:48:12;;;;;;;14.00;10.02;;;;;;;;;;5026260;28;20051;-41
2022/12/07 04:50:38;;;;;;;12.98;9.23;;;;;;;;;;5026579;28;20422;-43
2022/12/07 04:53:03;;;;;;;14.23;9.85;;;;;;;;;;5024040;28;20497;-45
2022/12/07 04:55:29;;;;;;;17.08;9.65;;;;;;;;;;5027213;28;20110;-47
2022/12/07 04:57:54;;;;;;;15.55;10.07;;;;;;;;;;5025066;28;20042;-41
2022/12/07 05:00:19;;;;;;;14.73;10.45;;;;;;;;;;5024962;28;20030;-41
2022/12/07 05:02:45;;;;;;;16.83;10.48;;;;;;;;;;5023833;28;20372;-40
2022/12/07 05:05:10;;;;;;;17.23;9.65;;;;;;;;;;5026362;28;20034;-41
2022/12/07 05:07:35;;;;;;;14.07;9.68;;;;;;;;;;5022608;28;20033;-40
2022/12/07 05:10:01;;;;;;;16.67;10.57;;;;;;;;;;5026186;28;20044;-39
2022/12/07 05:12:26;;;;;;;15.82;9.95;;;;;;;;;;5024449;28;20410;-41
2022/12/07 05:14:51;;;;;;;13.85;10.38;;;;;;;;;;5024534;28;20037;-41
2022/12/07 05:17:17;;;;;;;12.68;9.77;;;;;;;;;;5023401;28;20045;-42
2022/12/07 05:19:42;;;;;;;13.60;10.43;;;;;;;;;;5023655;28;20026;-42
2022/12/07 05:22:08;;;;;;;15.85;11.55;;;;;;;;;;5024150;28;20042;-41
2022/12/07 05:24:33;;;;;;;24.42;16.38;;;;;;;;;;5026157;28;20044;-41
2022/12/07 05:26:59;;;;;;;22.48;14.82;;;;;;;;;;5003052;28;20057;-49
2022/12/07 05:29:24;;;;;;;22.63;14.75;;;;;;;;;;5004806;28;20038;-41
2022/12/07 05:31:49;;;;;;;20.98;13.60;;;;;;;;;;5022307;28;20041;-43
2022/12/07 05:34:15;;;;;;;17.13;12.57;;;;;;;;;;5024954;28;20068;-41
2022/12/07 05:36:40;;;;;;;12.63;9.73;;;;;;;;;;5023709;28;20046;-41
2022/12/07 05:39:07;;;;;;;14.98;10.05;;;;;;;;;;5024303;28;20148;-44
2022/12/07 05:44:16;;;;;;;17.05;10.55;;;;;;;;;;5019266;28;20037;-41
2022/12/07 05:46:42;;;;;;;14.40;9.55;;;;;;;;;;5024131;28;20034;-43
2022/12/07 05:49:07;;;;;;;12.75;9.30;;;;;;;;;;5021745;28;20514;-43
2022/12/07 05:51:32;;;;;;;11.07;8.88;;;;;;;;;;5023438;28;20036;-43
2022/12/07 05:53:58;;;;;;;11.68;9.27;;;;;;;;;;5023383;28;20092;-42
2022/12/07 05:56:24;;;;;;;18.92;10.38;;;;;;;;;;5024581;28;20046;-41
2022/12/07 06:01:33;;;;;;;13.18;9.23;;;;;;;;;;5021857;28;20048;-43
2022/12/07 06:03:58;;;;;;;16.75;9.18;;;;;;;;;;5025348;28;20063;-42
2022/12/07 06:06:24;;;;;;;15.20;9.52;;;;;;;;;;5021912;28;20057;-44
2022/12/07 06:08:49;;;;;;;13.13;9.57;;;;;;;;;;5022148;28;20057;-41
2022/12/07 06:13:58;;;;;;;17.45;9.73;;;;;;;;;;5019913;28;20758;-41
2022/12/07 06:16:24;;;;;;;14.68;8.80;;;;;;;;;;5010711;28;20042;-41
2022/12/07 06:18:49;;;;;;;12.48;8.98;;;;;;;;;;5005011;28;20021;-42
2022/12/07 06:21:14;;;;;;;12.45;9.25;;;;;;;;;;5012374;28;20044;-41
2022/12/07 06:23:40;;;;;;;15.98;10.02;;;;;;;;;;5025923;28;20049;-44
2022/12/07 06:26:05;;;;;;;18.70;11.52;;;;;;;;;;5016353;28;20061;-41
2022/12/07 06:28:31;;;;;;;24.65;13.52;;;;;;;;;;5017091;28;20044;-41
2022/12/07 06:31:00;;;;;;;26.77;15.07;;;;;;;;;;5019932;28;20034;-42
2022/12/07 06:33:26;;;;;;;27.10;16.20;;;;;;;;;;5051001;28;20075;-42
2022/12/07 06:35:52;;;;;;;33.33;20.77;;;;;;;;;;5014342;28;20422;-42
2022/12/07 06:38:18;;;;;;;23.90;15.02;;;;;;;;;;4998997;28;20083;-41
2022/12/07 06:40:43;;;;;;;28.55;14.95;;;;;;;;;;5012250;28;20042;-41
2022/12/07 06:43:08;;;;;;;26.92;12.65;;;;;;;;;;5025180;28;20374;-42
2022/12/07 06:45:34;;;;;;;18.02;10.65;;;;;;;;;;5025457;28;20407;-44
2022/12/07 06:47:59;;;;;;;26.17;13.63;;;;;;;;;;5028576;28;20410;-43
2022/12/07 06:50:25;;;;;;;52.20;20.65;;;;;;;;;;5024702;28;20046;-41
2022/12/07 06:52:51;;;;;;;34.83;17.77;;;;;;;;;;5027613;28;20467;-42
2022/12/07 06:55:17;;;;;;;21.77;15.68;;;;;;;;;;5027982;28;20486;-43
2022/12/07 06:57:42;;;;;;;24.65;14.20;;;;;;;;;;5028616;28;20026;-46
2022/12/07 07:00:08;;;;;;;25.38;13.63;;;;;;;;;;5027516;28;20036;-43
2022/12/07 07:02:33;;;;;;;16.65;11.02;;;;;;;;;;5024963;28;20028;-41
2022/12/07 07:04:59;;;;;;;21.52;11.25;;;;;;;;;;5025693;28;20053;-46
2022/12/07 07:07:24;;;;;;;15.18;10.35;;;;;;;;;;5025316;28;20131;-41
2022/12/07 07:09:49;;;;;;;12.95;10.00;;;;;;;;;;5027538;28;20030;-41
2022/12/07 07:12:15;;;;;;;16.60;9.93;;;;;;;;;;5028040;28;20053;-48
2022/12/07 07:14:41;;;;;;;12.55;9.73;;;;;;;;;;5023404;28;20037;-42
2022/12/07 07:17:07;;;;;;;13.38;9.40;;;;;;;;;;5020663;28;20046;-51
2022/12/07 07:19:32;;;;;;;11.90;9.15;;;;;;;;;;5028126;28;20026;-42
2022/12/07 07:21:58;;;;;;;14.00;8.82;;;;;;;;;;5024928;28;20509;-43
2022/12/07 07:24:23;;;;;;;15.73;10.02;;;;;;;;;;5028275;28;20014;-42
2022/12/07 07:26:48;;;;;;;13.80;9.30;;;;;;;;;;5026113;28;20088;-41
2022/12/07 07:29:14;;;;;;;14.02;9.38;;;;;;;;;;5026799;28;20030;-46
2022/12/07 07:31:39;;;;;;;11.88;9.45;;;;;;;;;;5023027;28;20117;-42
2022/12/07 07:34:04;;;;;;;14.10;9.43;;;;;;;;;;5024934;28;20029;-44
2022/12/07 07:36:30;;;;;;;12.23;8.93;;;;;;;;;;5025593;28;20490;-47
2022/12/07 07:38:55;;;;;;;11.77;9.73;;;;;;;;;;5027736;28;20048;-45
2022/12/07 07:41:21;;;;;;;13.27;10.15;;;;;;;;;;5027275;28;20068;-43
2022/12/07 07:43:46;;;;;;;12.55;9.20;;;;;;;;;;5024692;28;20036;-42
2022/12/07 07:46:11;;;;;;;14.32;9.13;;;;;;;;;;5029138;28;20053;-47
2022/12/07 07:48:37;;;;;;;21.05;10.18;;;;;;;;;;5020851;28;20037;-41
2022/12/07 07:51:06;;;;;;;15.60;9.73;;;;;;;;;;5025411;28;20092;-42
2022/12/07 07:53:32;;;;;;;13.90;10.18;;;;;;;;;;5024979;28;20041;-42
2022/12/07 07:55:58;;;;;;;12.07;9.65;;;;;;;;;;5025030;28;20049;-41
2022/12/07 07:58:25;;;;;;;15.77;10.68;;;;;;;;;;5028335;28;20099;-42
2022/12/07 08:00:50;;;;;;;13.93;10.15;;;;;;;;;;5024846;28;20042;-43
2022/12/07 08:03:16;;;;;;;16.67;10.35;;;;;;;;;;5023511;28;20367;-41
2022/12/07 08:05:41;;;;;;;16.95;10.10;;;;;;;;;;5022017;28;20137;-43
2022/12/07 08:08:07;;;;;;;13.52;10.05;;;;;;;;;;5018370;28;20124;-43
2022/12/07 08:10:32;;;;;;;16.15;11.45;;;;;;;;;;5021361;28;20046;-42
2022/12/07 08:13:13;;;;;;;17.73;12.63;;;;;;;;;;5021155;28;20937;-41
2022/12/07 08:15:45;;;;;;;18.48;11.13;;;;;;;;;;5018858;28;20041;-43
2022/12/07 08:18:11;;;;;;;17.50;11.75;;;;;;;;;;5020529;28;20025;-42
2022/12/07 08:20:37;;;;;;;25.13;10.77;;;;;;;;;;5017492;28;20063;-49
2022/12/07 08:23:03;;;;;;;16.40;10.93;;;;;;;;;;5024766;28;20430;-41
2022/12/07 08:25:29;;;;;;;15.20;11.35;;;;;;;;;;5023796;28;20049;-40
2022/12/07 08:27:55;;;;;;;21.20;11.25;;;;;;;;;;5023952;28;20037;-40
2022/12/07 08:30:21;;;;;;;18.13;10.43;;;;;;;;;;5023131;28;20045;-41
2022/12/07 08:32:48;;;;;;;13.02;10.38;;;;;;;;;;5021951;28;20069;-42
2022/12/07 08:35:14;;;;;;;12.38;9.40;;;;;;;;;;5020167;28;20095;-44
2022/12/07 08:37:40;;;;;;;13.98;9.57;;;;;;;;;;5021239;28;20069;-41
2022/12/07 08:40:14;;;;;;;10.73;9.18;;;;;;;;;;5020470;28;20096;-41
2022/12/07 08:42:40;;;;;;;14.10;9.05;;;;;;;;;;5020173;28;20112;-40
2022/12/07 08:45:09;;;;;;;15.48;9.32;;;;;;;;;;5020761;28;20144;-40
2022/12/07 08:47:37;;;;;;;11.30;8.57;;;;;;;;;;5021654;28;20050;-40
2022/12/07 08:50:05;;;;;;;11.93;9.43;;;;;;;;;;5024722;28;20033;-40
2022/12/07 08:52:31;;;;;;;11.80;8.35;;;;;;;;;;5020446;28;20041;-40
2022/12/07 08:54:58;;;;;;;11.30;8.02;;;;;;;;;;5017641;28;20409;-41
2022/12/07 08:57:24;;;;;;;9.23;7.40;;;;;;;;;;5019133;28;20049;-44
2022/12/07 08:59:50;;;;;;;10.52;7.45;;;;;;;;;;5025515;28;20057;-40
2022/12/07 09:02:15;;;;;;;9.77;7.60;;;;;;;;;;5021044;28;22014;-40
2022/12/07 09:04:40;;;;;;;10.20;7.07;;;;;;;;;;5018864;28;20152;-40
2022/12/07 09:07:06;;;;;;;10.48;8.40;;;;;;;;;;5013854;28;20046;-48
2022/12/07 09:09:32;;;;;;;10.40;8.05;;;;;;;;;;5018985;28;20026;-41
2022/12/07 09:11:58;;;;;;;14.98;8.55;;;;;;;;;;5017989;28;20041;-47
2022/12/07 09:14:23;;;;;;;13.18;7.90;;;;;;;;;;5019450;28;20040;-41
2022/12/07 09:16:50;;;;;;;10.70;8.38;;;;;;;;;;5019197;28;20133;-48
2022/12/07 09:19:15;;;;;;;10.20;8.02;;;;;;;;;;5021434;28;20056;-42
2022/12/07 09:21:41;;;;;;;10.73;8.05;;;;;;;;;;5020457;28;20410;-42
2022/12/07 09:24:07;;;;;;;9.20;7.82;;;;;;;;;;5016603;28;20087;-43
2022/12/07 09:26:33;;;;;;;10.82;8.30;;;;;;;;;;5016536;28;20799;-41
2022/12/07 09:28:58;;;;;;;10.52;7.03;;;;;;;;;;5016545;28;20037;-41
2022/12/07 09:31:25;;;;;;;10.20;7.70;;;;;;;;;;5016171;28;20461;-42
2022/12/07 09:33:57;;;;;;;11.88;7.43;;;;;;;;;;5018856;28;20493;-43
2022/12/07 09:36:23;;;;;;;9.38;7.22;;;;;;;;;;5019167;28;20383;-41
2022/12/07 09:38:49;;;;;;;10.18;7.55;;;;;;;;;;5021499;28;20044;-41
2022/12/07 09:41:15;;;;;;;9.25;7.50;;;;;;;;;;5015094;28;20077;-41
2022/12/07 09:43:41;;;;;;;9.57;7.25;;;;;;;;;;5022022;28;20060;-42
2022/12/07 09:46:14;;;;;;;9.75;8.00;;;;;;;;;;5020977;28;20092;-45
2022/12/07 09:48:42;;;;;;;15.43;7.95;;;;;;;;;;5016177;28;20056;-42
2022/12/07 09:51:25;;;;;;;11.15;7.70;;;;;;;;;;5017246;28;20034;-45
2022/12/07 09:53:53;;;;;;;7.85;6.65;;;;;;;;;;5020425;28;20084;-41
2022/12/07 09:56:20;;;;;;;9.27;6.88;;;;;;;;;;5015840;28;20037;-41
2022/12/07 09:58:46;;;;;;;7.63;6.00;;;;;;;;;;5022166;28;20033;-42
2022/12/07 10:01:17;;;;;;;9.07;6.38;;;;;;;;;;5023459;28;20050;-41
2022/12/07 10:03:55;;;;;;;9.15;6.93;;;;;;;;;;5023688;28;20120;-42
2022/12/07 10:06:20;;;;;;;9.25;7.13;;;;;;;;;;5022319;28;20133;-42
2022/12/07 10:08:46;;;;;;;8.10;6.57;;;;;;;;;;5023360;28;20109;-40
2022/12/07 10:11:14;;;;;;;7.72;6.65;;;;;;;;;;5021601;28;20081;-42
2022/12/07 10:13:42;;;;;;;7.75;6.95;;;;;;;;;;5022183;28;20026;-41
2022/12/07 10:16:32;;;;;;;7.47;5.95;;;;;;;;;;5019990;28;20103;-41
2022/12/07 10:19:18;;;;;;;8.93;7.45;;;;;;;;;;5018172;28;20394;-41
2022/12/07 10:22:00;;;;;;;7.60;6.03;;;;;;;;;;5020375;28;20046;-42
2022/12/07 10:24:25;;;;;;;6.77;5.93;;;;;;;;;;5022478;28;20055;-45
2022/12/07 10:26:52;;;;;;;6.60;5.65;;;;;;;;;;5019257;28;21404;-42
2022/12/07 10:29:27;;;;;;;6.13;5.28;;;;;;;;;;5024562;28;20036;-42
2022/12/07 10:31:59;;;;;;;13.65;5.30;;;;;;;;;;5025878;28;20187;-41
2022/12/07 10:34:29;;;;;;;6.40;5.22;;;;;;;;;;5023392;28;20079;-43
2022/12/07 10:37:13;;;;;;;7.65;5.45;;;;;;;;;;5018998;28;20050;-41
2022/12/07 10:39:53;;;;;;;7.00;5.38;;;;;;;;;;5012520;28;20046;-45
2022/12/07 10:42:21;;;;;;;7.43;6.38;;;;;;;;;;5004799;28;20098;-45
2022/12/07 10:45:06;;;;;;;8.05;5.45;;;;;;;;;;4997860;28;20038;-42
2022/12/07 10:47:38;;;;;;;12.10;5.38;;;;;;;;;;4997463;28;20136;-42
2022/12/07 10:50:12;;;;;;;6.60;4.85;;;;;;;;;;5004869;28;20046;-41
2022/12/07 10:53:03;;;;;;;5.32;3.95;;;;;;;;;;5023577;28;20053;-43
2022/12/07 10:55:50;;;;;;;5.55;3.92;;;;;;;;;;5032272;28;20462;-43
2022/12/07 10:58:28;;;;;;;5.05;4.10;;;;;;;;;;5025590;28;20047;-42
2022/12/07 11:01:11;;;;;;;6.20;4.50;;;;;;;;;;5025728;28;20046;-42
2022/12/07 11:03:45;;;;;;;6.65;4.18;;;;;;;;;;5021659;28;20049;-42
2022/12/07 11:06:28;;;;;;;6.25;4.20;;;;;;;;;;5020982;28;20153;-45
2022/12/07 11:08:59;;;;;;;6.38;4.30;;;;;;;;;;5017938;28;20161;-42
2022/12/07 11:11:33;;;;;;;4.03;3.60;;;;;;;;;;5021310;28;20073;-48
2022/12/07 11:14:15;;;;;;;4.32;3.92;;;;;;;;;;5023444;28;20028;-42
2022/12/07 11:16:51;;;;;;;5.47;4.13;;;;;;;;;;5024432;28;20421;-42
2022/12/07 11:19:35;;;;;;;4.07;3.63;;;;;;;;;;5022659;28;20026;-42
2022/12/07 11:22:18;;;;;;;4.43;4.03;;;;;;;;;;5024901;28;20469;-42
2022/12/07 11:25:01;;;;;;;4.85;4.00;;;;;;;;;;5027614;28;20144;-44
2022/12/07 11:27:41;;;;;;;5.50;4.20;;;;;;;;;;5025398;28;20032;-42
2022/12/07 11:30:41;;;;;;;4.28;3.67;;;;;;;;;;5027525;28;20470;-42
2022/12/07 11:33:38;;;;;;;4.70;3.70;;;;;;;;;;4985680;28;20042;-41
2022/12/07 11:36:17;;;;;;;4.32;3.63;;;;;;;;;;4968816;28;20043;-40
2022/12/07 11:38:50;;;;;;;4.68;4.13;;;;;;;;;;4984683;28;20046;-44
2022/12/07 11:41:22;;;;;;;5.18;4.05;;;;;;;;;;4973258;28;20061;-42
2022/12/07 11:43:56;;;;;;;3.70;3.30;;;;;;;;;;4981058;28;20535;-41
2022/12/07 11:46:27;;;;;;;6.43;3.90;;;;;;;;;;4967378;28;20042;-42
2022/12/07 11:49:07;;;;;;;3.60;3.30;;;;;;;;;;4972113;28;20058;-41
2022/12/07 11:51:36;;;;;;;4.20;3.75;;;;;;;;;;4974130;28;20128;-41
2022/12/07 11:54:12;;;;;;;3.70;3.40;;;;;;;;;;4979437;28;20030;-41
2022/12/07 11:56:37;;;;;;;5.65;3.80;;;;;;;;;;4967327;28;20149;-42
2022/12/07 11:59:10;;;;;;;4.50;3.38;;;;;;;;;;4969624;28;20034;-43
2022/12/07 12:01:38;;;;;;;5.07;3.38;;;;;;;;;;4976672;28;20081;-41
2022/12/07 12:04:16;;;;;;;4.40;3.88;;;;;;;;;;4979595;28;20628;-40
2022/12/07 12:06:43;;;;;;;3.80;3.50;;;;;;;;;;4979733;28;20057;-41
2022/12/07 12:09:31;;;;;;;4.40;3.90;;;;;;;;;;4987117;28;20076;-41
2022/12/07 12:12:00;;;;;;;4.50;4.05;;;;;;;;;;5021938;28;20034;-41
2022/12/07 12:14:52;;;;;;;4.07;3.67;;;;;;;;;;5020562;28;20083;-42
2022/12/07 12:17:36;;;;;;;5.50;3.67;;;;;;;;;;5022019;28;20196;-43
2022/12/07 12:20:15;;;;;;;5.38;4.18;;;;;;;;;;5019869;28;20056;-41
2022/12/07 12:22:45;;;;;;;3.50;3.20;;;;;;;;;;5019556;28;20026;-40
2022/12/07 12:25:24;;;;;;;6.38;3.63;;;;;;;;;;5018936;28;20025;-42
2022/12/07 12:27:52;;;;;;;5.68;3.00;;;;;;;;;;5022226;28;20104;-41
2022/12/07 12:30:44;;;;;;;3.58;3.28;;;;;;;;;;5015816;28;20025;-41
2022/12/07 12:33:22;;;;;;;3.28;2.97;;;;;;;;;;4996218;28;20045;-41
2022/12/07 12:36:27;;;;;;;3.80;3.33;;;;;;;;;;5004771;28;20141;-42
2022/12/07 12:38:58;;;;;;;3.22;2.92;;;;;;;;;;5004231;28;20045;-47
2022/12/07 12:44:19;;;;;;;3.30;3.00;;;;;;;;;;5020891;28;20592;-45
2022/12/07 12:46:53;;;;;;;6.22;3.20;;;;;;;;;;5019795;28;20033;-44
2022/12/07 12:49:19;;;;;;;4.07;3.08;;;;;;;;;;5018645;28;20064;-46
2022/12/07 12:51:52;;;;;;;3.78;2.75;;;;;;;;;;5017806;28;20045;-44
2022/12/07 12:54:18;;;;;;;3.30;3.00;;;;;;;;;;5022539;28;20416;-40
2022/12/07 12:56:49;;;;;;;5.57;3.47;;;;;;;;;;5018866;28;20049;-41
2022/12/07 12:59:30;;;;;;;3.83;3.38;;;;;;;;;;5020765;28;20041;-47
2022/12/07 13:02:01;;;;;;;7.03;3.40;;;;;;;;;;5016313;28;20045;-43
2022/12/07 13:05:05;;;;;;;3.80;3.10;;;;;;;;;;5018008;28;20041;-45
2022/12/07 13:07:52;;;;;;;3.15;2.85;;;;;;;;;;4999842;28;20055;-43
2022/12/07 13:10:23;;;;;;;4.35;3.28;;;;;;;;;;5001895;28;20455;-43
2022/12/07 13:13:18;;;;;;;6.97;2.85;;;;;;;;;;5012917;28;20021;-42
2022/12/07 13:15:50;;;;;;;3.58;2.85;;;;;;;;;;5005977;28;20038;-42
2022/12/07 13:18:27;;;;;;;3.27;2.97;;;;;;;;;;5019066;28;20026;-43
2022/12/07 13:20:57;;;;;;;4.10;3.20;;;;;;;;;;5020597;28;20487;-42
2022/12/07 13:23:25;;;;;;;3.45;2.83;;;;;;;;;;5014720;28;20026;-43
2022/12/07 13:25:58;;;;;;;5.13;2.92;;;;;;;;;;5018307;28;20602;-42
2022/12/07 13:28:27;;;;;;;3.25;2.90;;;;;;;;;;5020995;28;20040;-42
2022/12/07 13:31:11;;;;;;;3.58;3.22;;;;;;;;;;5021103;28;20049;-42
2022/12/07 13:33:37;;;;;;;3.10;2.80;;;;;;;;;;5017073;28;20047;-42
2022/12/07 13:36:03;;;;;;;4.07;3.25;;;;;;;;;;5023271;28;20045;-42
2022/12/07 13:38:32;;;;;;;6.97;3.70;;;;;;;;;;5020783;28;20021;-44
2022/12/07 13:41:10;;;;;;;3.55;2.95;;;;;;;;;;5018523;28;20474;-43
2022/12/07 13:43:48;;;;;;;7.65;3.47;;;;;;;;;;5018422;28;20040;-43
2022/12/07 13:46:17;;;;;;;7.35;4.90;;;;;;;;;;5017708;28;20088;-43
2022/12/07 13:48:49;;;;;;;3.63;3.30;;;;;;;;;;5015841;28;20119;-46
2022/12/07 13:51:26;;;;;;;3.25;2.95;;;;;;;;;;5018879;28;20048;-44
2022/12/07 13:54:00;;;;;;;4.05;3.65;;;;;;;;;;5018427;28;20029;-45
2022/12/07 13:56:34;;;;;;;4.22;3.50;;;;;;;;;;5017680;28;20120;-43
2022/12/07 13:59:00;;;;;;;5.60;4.40;;;;;;;;;;5019982;28;20021;-45
2022/12/07 14:01:26;;;;;;;4.47;3.88;;;;;;;;;;5020314;28;20121;-45
2022/12/07 14:03:52;;;;;;;3.08;2.72;;;;;;;;;;5015126;28;20052;-42
2022/12/07 14:06:18;;;;;;;3.85;3.13;;;;;;;;;;5014513;28;20079;-45
2022/12/07 14:08:44;;;;;;;8.20;3.35;;;;;;;;;;5016246;28;20045;-42
2022/12/07 14:11:16;;;;;;;3.75;3.38;;;;;;;;;;5013981;28;20046;-44
2022/12/07 14:13:55;;;;;;;3.90;3.50;;;;;;;;;;5019846;28;20108;-42
2022/12/07 14:16:21;;;;;;;6.80;3.70;;;;;;;;;;5019973;28;20120;-43
2022/12/07 14:18:46;;;;;;;5.25;3.72;;;;;;;;;;5018723;28;20087;-42
2022/12/07 14:21:23;;;;;;;4.97;3.70;;;;;;;;;;5016748;28;20108;-45
2022/12/07 14:24:10;;;;;;;13.30;4.43;;;;;;;;;;5017044;28;20029;-43
2022/12/07 14:26:36;;;;;;;5.50;4.22;;;;;;;;;;5019094;28;20045;-42
2022/12/07 14:29:20;;;;;;;7.15;3.85;;;;;;;;;;5018625;28;20158;-43
2022/12/07 14:31:46;;;;;;;4.80;4.40;;;;;;;;;;5015487;28;20049;-43
2022/12/07 14:34:12;;;;;;;6.82;4.68;;;;;;;;;;5016428;28;20041;-43
2022/12/07 14:36:37;;;;;;;8.48;5.90;;;;;;;;;;5020790;28;20079;-43
2022/12/07 14:39:03;;;;;;;11.75;6.10;;;;;;;;;;5019702;28;20030;-42
2022/12/07 14:44:13;;;;;;;7.75;6.55;;;;;;;;;;5021054;28;20040;-42
2022/12/07 14:46:38;;;;;;;11.05;5.22;;;;;;;;;;5022028;28;20045;-45
2022/12/07 14:49:03;;;;;;;8.00;6.47;;;;;;;;;;5023193;28;20455;-44
2022/12/07 14:51:29;;;;;;;7.63;5.53;;;;;;;;;;5025765;28;20050;-48
2022/12/07 14:53:55;;;;;;;7.35;5.80;;;;;;;;;;5022301;28;20384;-44
2022/12/07 14:56:20;;;;;;;5.45;4.90;;;;;;;;;;5020147;28;20045;-44
2022/12/07 14:58:47;;;;;;;6.60;4.85;;;;;;;;;;5021421;28;20030;-42
2022/12/07 15:01:13;;;;;;;8.00;6.15;;;;;;;;;;5023008;28;20041;-45
2022/12/07 15:03:39;;;;;;;9.43;6.07;;;;;;;;;;5022584;28;20022;-43